Archer, Iowa
Current Conditions -  °F | °C
As of 9:35 PM on Monday 22 Dec 2014 (Local Time) from KSHL Reporting Station
Haze Haze  
Wind Chill: 26°   Ceiling: 400
Heat Index: 34°   Visibility: 6mi
Dew Point: 34°   Wind: 9mph
Humidity: 100%   Direction: 70°ENE
Pressure: 29.47"   Gusts: NA
Location:  43.12°N, 95.75°W
Report Text: KSHL 230335Z AUTO 07008KT 6SM BR OVC004 01/01 A2947 RMK AO2
Loading
Personal Weather Stations






























Interactive Weather Map New forecast layout! Learn more

10-Day Weather Forecast

Advertisements
Track Severe Weather on mobile